Time;durP1;ratioP1;P1;durP2;ratioP2;P2;SDS_P1;SDS_P2;PMS_P1;PMS_P2;Temp;Humidity;BMP_temperature;BMP_pressure;BME280_temperature;BME280_humidity;BME280_pressure;Samples;Min_cycle;Max_cycle;Signal;HPM_P1;HPM_P2
2024/01/16 00:02:15;;;;;;;3.40;3.10;;;;;;;-1.37;100.00;100733.84;5027267;28;20025;-63
2024/01/16 00:04:40;;;;;;;4.73;2.80;;;;;;;-1.37;100.00;100736.38;5027801;28;20298;-63
2024/01/16 00:07:06;;;;;;;6.93;3.47;;;;;;;-1.37;100.00;100736.38;5027384;28;20021;-63
2024/01/16 00:09:34;;;;;;;5.07;3.37;;;;;;;-1.37;100.00;100743.13;5027493;28;20112;-63
2024/01/16 00:12:00;;;;;;;5.37;3.63;;;;;;;-1.36;100.00;100747.44;5025852;28;20032;-63
2024/01/16 00:14:25;;;;;;;5.73;3.57;;;;;;;-1.37;100.00;100750.78;5027477;28;20018;-63
2024/01/16 00:16:51;;;;;;;3.47;3.17;;;;;;;-1.37;100.00;100755.84;5026865;28;20064;-64
2024/01/16 00:19:16;;;;;;;4.80;3.20;;;;;;;-1.35;100.00;100754.31;5025063;28;20055;-63
2024/01/16 00:21:48;;;;;;;5.20;3.80;;;;;;;-1.38;100.00;100746.44;5026994;28;20045;-63
2024/01/16 00:24:14;;;;;;;3.50;3.13;;;;;;;-1.35;100.00;100747.56;5021450;28;20033;-63
2024/01/16 00:26:39;;;;;;;4.77;3.60;;;;;;;-1.35;100.00;100746.69;5026793;28;20018;-63
2024/01/16 00:29:05;;;;;;;6.93;3.30;;;;;;;-1.35;100.00;100744.16;5027050;28;20477;-63
2024/01/16 00:31:30;;;;;;;5.37;3.97;;;;;;;-1.33;100.00;100745.13;5026580;28;20029;-63
2024/01/16 00:33:55;;;;;;;7.80;3.90;;;;;;;-1.36;100.00;100743.25;5027239;28;20497;-63
2024/01/16 00:36:20;;;;;;;6.37;3.53;;;;;;;-1.35;100.00;100749.25;5025687;28;20025;-63
2024/01/16 00:38:46;;;;;;;7.73;3.70;;;;;;;-1.35;100.00;100751.78;5026595;28;20424;-63
2024/01/16 00:41:14;;;;;;;5.20;3.57;;;;;;;-1.35;100.00;100759.41;5026582;28;20029;-63
2024/01/16 00:43:39;;;;;;;7.27;3.93;;;;;;;-1.34;100.00;100773.88;5027086;28;20109;-63
2024/01/16 00:46:05;;;;;;;5.80;3.90;;;;;;;-1.33;100.00;100783.28;5024416;28;20120;-63
2024/01/16 00:48:30;;;;;;;7.30;3.63;;;;;;;-1.33;100.00;100776.53;5026836;28;20021;-63
2024/01/16 00:50:55;;;;;;;8.57;3.97;;;;;;;-1.29;100.00;100749.69;5026406;28;20417;-63
2024/01/16 00:53:20;;;;;;;7.40;3.67;;;;;;;-1.30;100.00;100742.84;5027186;28;20052;-63
2024/01/16 00:55:46;;;;;;;6.07;3.27;;;;;;;-1.29;100.00;100753.91;5026029;28;20017;-63
2024/01/16 00:58:11;;;;;;;4.73;2.90;;;;;;;-1.33;100.00;100755.31;5026145;28;20025;-63
2024/01/16 01:00:37;;;;;;;5.53;3.20;;;;;;;-1.33;100.00;100758.75;5025076;28;20456;-63
2024/01/16 01:03:03;;;;;;;4.83;3.00;;;;;;;-1.31;100.00;100755.47;5026716;28;20106;-63
2024/01/16 01:05:29;;;;;;;4.27;3.23;;;;;;;-1.32;100.00;100754.56;5026431;28;20385;-63
2024/01/16 01:07:55;;;;;;;7.97;3.73;;;;;;;-1.31;100.00;100756.31;5026524;28;20040;-63
2024/01/16 01:10:20;;;;;;;7.20;3.47;;;;;;;-1.30;100.00;100755.56;5026238;28;20547;-63
2024/01/16 01:12:45;;;;;;;5.37;3.30;;;;;;;-1.30;100.00;100765.75;5026424;28;20085;-63
2024/01/16 01:15:11;;;;;;;6.93;3.03;;;;;;;-1.29;100.00;100764.06;5025989;28;20521;-63
2024/01/16 01:17:37;;;;;;;6.53;2.93;;;;;;;-1.29;100.00;100770.03;5026480;28;20064;-63
2024/01/16 01:20:02;;;;;;;7.77;3.20;;;;;;;-1.26;100.00;100769.41;5026237;28;20053;-63
2024/01/16 01:22:27;;;;;;;10.23;3.43;;;;;;;-1.27;100.00;100768.53;5026124;28;20021;-63
2024/01/16 01:24:53;;;;;;;8.70;3.73;;;;;;;-1.27;100.00;100765.09;5026168;28;20997;-63
2024/01/16 01:27:18;;;;;;;6.30;3.53;;;;;;;-1.26;100.00;100761.78;5026849;28;20496;-63
2024/01/16 01:29:43;;;;;;;6.10;3.03;;;;;;;-1.27;100.00;100755.81;5026279;28;20029;-64
2024/01/16 01:32:09;;;;;;;6.80;3.80;;;;;;;-1.25;100.00;100749.19;5025917;28;20033;-63
2024/01/16 01:34:34;;;;;;;6.77;3.40;;;;;;;-1.24;100.00;100757.72;5026113;28;20385;-63
2024/01/16 01:36:59;;;;;;;8.40;4.37;;;;;;;-1.24;100.00;100753.50;5026863;28;20037;-63
2024/01/16 01:39:25;;;;;;;7.00;3.80;;;;;;;-1.23;100.00;100755.28;5026142;28;20036;-63
2024/01/16 01:41:50;;;;;;;7.13;3.33;;;;;;;-1.23;100.00;100752.75;5026466;28;20038;-63
2024/01/16 01:44:16;;;;;;;8.17;3.87;;;;;;;-1.24;100.00;100761.13;5025387;28;20465;-63
2024/01/16 01:46:42;;;;;;;6.77;3.13;;;;;;;-1.23;100.00;100768.00;5026351;28;20029;-64
2024/01/16 01:49:07;;;;;;;4.30;2.80;;;;;;;-1.22;100.00;100762.13;5029135;28;20599;-63
2024/01/16 01:51:33;;;;;;;8.60;3.00;;;;;;;-1.22;100.00;100764.69;5029632;28;20069;-64
2024/01/16 01:54:01;;;;;;;9.37;3.00;;;;;;;-1.19;100.00;100765.69;5027231;28;21062;-63
2024/01/16 01:56:27;;;;;;;6.03;2.90;;;;;;;-1.19;100.00;100770.78;5018936;28;20032;-63
2024/01/16 01:58:56;;;;;;;4.97;2.63;;;;;;;-1.21;100.00;100774.06;5030155;28;20029;-63
2024/01/16 02:01:22;;;;;;;6.43;2.70;;;;;;;-1.20;100.00;100774.97;5030018;28;20064;-63
2024/01/16 02:03:49;;;;;;;4.83;2.53;;;;;;;-1.19;100.00;100778.41;5029800;28;20037;-63
2024/01/16 02:06:16;;;;;;;5.33;2.83;;;;;;;-1.20;100.00;100769.88;5029896;28;20033;-63
2024/01/16 02:08:42;;;;;;;7.00;3.13;;;;;;;-1.18;100.00;100783.63;5029254;28;20021;-64
2024/01/16 02:11:08;;;;;;;4.67;2.47;;;;;;;-1.19;100.00;100776.75;5030048;28;20021;-63
2024/01/16 02:13:33;;;;;;;7.20;3.00;;;;;;;-1.19;100.00;100781.84;5029683;28;20421;-63
2024/01/16 02:15:58;;;;;;;4.27;2.60;;;;;;;-1.18;100.00;100780.19;5029171;28;20101;-63
2024/01/16 02:18:24;;;;;;;7.57;2.53;;;;;;;-1.19;100.00;100773.31;5028792;28;20407;-63
2024/01/16 02:20:49;;;;;;;5.10;2.30;;;;;;;-1.19;100.00;100771.69;5029323;28;20029;-63
2024/01/16 02:23:18;;;;;;;5.53;2.17;;;;;;;-1.18;100.00;100773.44;5029037;28;20663;-63
2024/01/16 02:25:44;;;;;;;7.83;2.20;;;;;;;-1.18;100.00;100770.00;5029244;28;20524;-63
2024/01/16 02:28:09;;;;;;;5.93;2.27;;;;;;;-1.18;100.00;100770.00;5029468;28;20025;-63
2024/01/16 02:30:34;;;;;;;5.53;2.40;;;;;;;-1.15;100.00;100763.50;5028628;28;20445;-63
2024/01/16 02:33:00;;;;;;;7.30;2.37;;;;;;;-1.14;100.00;100774.56;5029081;28;20029;-63
2024/01/16 02:35:25;;;;;;;8.97;2.83;;;;;;;-1.17;100.00;100774.34;5029712;28;20025;-63
2024/01/16 02:37:50;;;;;;;4.43;2.07;;;;;;;-1.16;100.00;100788.81;5029285;28;20028;-63
2024/01/16 02:40:16;;;;;;;5.80;2.40;;;;;;;-1.17;100.00;100784.50;5028967;28;20037;-63
2024/01/16 02:42:41;;;;;;;5.60;2.10;;;;;;;-1.18;100.00;100783.63;5028779;28;20400;-64
2024/01/16 02:45:07;;;;;;;5.43;1.93;;;;;;;-1.19;100.00;100781.84;5029140;28;20569;-63
2024/01/16 02:47:33;;;;;;;5.10;2.67;;;;;;;-1.23;100.00;100783.25;5029154;28;20532;-64
2024/01/16 02:49:59;;;;;;;5.73;2.70;;;;;;;-1.21;100.00;100784.25;5028450;28;20079;-63
2024/01/16 02:52:25;;;;;;;4.60;2.20;;;;;;;-1.22;100.00;100785.03;5028071;28;20140;-63
2024/01/16 02:54:50;;;;;;;6.97;2.70;;;;;;;-1.22;100.00;100776.50;5028864;28;20178;-63
2024/01/16 02:57:15;;;;;;;3.47;2.20;;;;;;;-1.19;100.00;100778.41;5027629;28;20033;-63
2024/01/16 02:59:44;;;;;;;7.63;2.97;;;;;;;-1.22;100.00;100790.13;5028280;28;20167;-63
2024/01/16 03:02:09;;;;;;;6.60;2.40;;;;;;;-1.20;100.00;100795.31;5028362;28;20048;-63
2024/01/16 03:04:35;;;;;;;9.97;2.67;;;;;;;-1.22;100.00;100797.75;5028202;28;20067;-64
2024/01/16 03:07:00;;;;;;;5.47;2.53;;;;;;;-1.20;100.00;100797.88;5027914;28;20037;-63
2024/01/16 03:09:26;;;;;;;7.17;2.40;;;;;;;-1.19;100.00;100796.22;5029188;28;20044;-63
2024/01/16 03:11:52;;;;;;;6.20;2.90;;;;;;;-1.16;100.00;100787.19;5028484;28;20033;-63
2024/01/16 03:14:18;;;;;;;6.43;2.50;;;;;;;-1.17;100.00;100784.50;5028158;28;20029;-63
2024/01/16 03:16:44;;;;;;;6.90;2.67;;;;;;;-1.17;100.00;100779.44;5028596;28;20025;-63
2024/01/16 03:19:09;;;;;;;5.13;2.43;;;;;;;-1.19;100.00;100781.84;5027782;28;20079;-63
2024/01/16 03:21:34;;;;;;;6.40;2.70;;;;;;;-1.18;100.00;100780.19;5028065;28;20112;-63
2024/01/16 03:24:00;;;;;;;5.27;2.57;;;;;;;-1.19;100.00;100780.94;5028387;28;20043;-63
2024/01/16 03:26:25;;;;;;;6.47;2.90;;;;;;;-1.19;100.00;100786.03;5027391;28;20037;-63
2024/01/16 03:28:50;;;;;;;6.93;2.87;;;;;;;-1.19;100.00;100789.47;5028561;28;20032;-63
2024/01/16 03:31:15;;;;;;;6.53;2.33;;;;;;;-1.19;100.00;100791.13;5028041;28;20033;-64
2024/01/16 03:33:42;;;;;;;6.53;2.60;;;;;;;-1.18;100.00;100787.81;5027943;28;20405;-63
2024/01/16 03:36:09;;;;;;;4.53;2.40;;;;;;;-1.18;100.00;100787.81;5027594;28;20029;-63
2024/01/16 03:38:37;;;;;;;6.10;2.30;;;;;;;-1.19;100.00;100783.50;5027807;28;20021;-63
2024/01/16 03:41:07;;;;;;;7.70;2.67;;;;;;;-1.21;100.00;100785.94;5027572;28;20025;-63
2024/01/16 03:43:35;;;;;;;3.60;2.17;;;;;;;-1.22;100.00;100781.59;5027708;28;20021;-63
2024/01/16 03:46:00;;;;;;;8.50;2.83;;;;;;;-1.22;100.00;100774.84;5027407;28;20060;-63
2024/01/16 03:48:25;;;;;;;8.00;2.90;;;;;;;-1.25;100.00;100769.53;5026269;28;20025;-63
2024/01/16 03:50:51;;;;;;;6.87;2.80;;;;;;;-1.25;100.00;100777.16;5027526;28;20053;-63
2024/01/16 03:53:16;;;;;;;6.50;3.13;;;;;;;-1.26;100.00;100771.97;5027458;28;20037;-63
2024/01/16 03:55:41;;;;;;;5.83;3.27;;;;;;;-1.28;100.00;100771.84;5027072;28;20378;-63
2024/01/16 03:58:07;;;;;;;5.67;4.23;;;;;;;-1.28;100.00;100770.94;5027699;28;20029;-63
2024/01/16 04:00:33;;;;;;;9.20;5.50;;;;;;;-1.32;100.00;100769.81;5027290;28;20037;-63
2024/01/16 04:02:58;;;;;;;12.63;7.77;;;;;;;-1.32;100.00;100769.81;5027611;28;20037;-63
2024/01/16 04:05:23;;;;;;;12.40;8.37;;;;;;;-1.36;100.00;100766.13;5027201;28;20085;-63
2024/01/16 04:07:48;;;;;;;14.77;8.97;;;;;;;-1.37;100.00;100755.84;5026510;28;20460;-63
2024/01/16 04:10:14;;;;;;;12.57;8.70;;;;;;;-1.39;100.00;100753.19;5027234;28;20079;-63
2024/01/16 04:12:39;;;;;;;16.73;9.20;;;;;;;-1.40;100.00;100750.53;5026165;28;20083;-63
2024/01/16 04:15:04;;;;;;;17.77;9.20;;;;;;;-1.44;100.00;100749.41;5027092;28;20025;-63
2024/01/16 04:17:30;;;;;;;20.47;10.80;;;;;;;-1.42;100.00;100758.00;5026637;28;20264;-63
2024/01/16 04:19:55;;;;;;;14.67;9.67;;;;;;;-1.42;100.00;100749.53;5027312;28;20057;-63
2024/01/16 04:22:21;;;;;;;16.13;9.90;;;;;;;-1.42;100.00;100749.53;5027177;28;20152;-63
2024/01/16 04:24:47;;;;;;;19.67;11.13;;;;;;;-1.42;100.00;100746.97;5026971;28;20480;-64
2024/01/16 04:27:13;;;;;;;16.47;9.67;;;;;;;-1.45;100.00;100734.91;5027072;28;20112;-63
2024/01/16 04:29:38;;;;;;;16.73;10.47;;;;;;;-1.48;100.00;100733.03;5027099;28;20103;-63
2024/01/16 04:32:04;;;;;;;15.57;10.30;;;;;;;-1.52;100.00;100735.19;5026214;28;20036;-63
2024/01/16 04:34:29;;;;;;;20.43;10.57;;;;;;;-1.51;100.00;100732.75;5027669;28;20059;-63
2024/01/16 04:36:55;;;;;;;21.40;10.63;;;;;;;-1.52;100.00;100735.19;5027161;28;20465;-63
2024/01/16 04:39:22;;;;;;;18.83;11.23;;;;;;;-1.51;100.00;100732.75;5026862;28;20048;-63
2024/01/16 04:41:48;;;;;;;16.80;10.10;;;;;;;-1.53;100.00;100734.28;5027507;28;20021;-63
2024/01/16 04:44:13;;;;;;;19.23;10.07;;;;;;;-1.53;100.00;100731.72;5026147;28;20037;-63
2024/01/16 04:46:38;;;;;;;18.70;10.53;;;;;;;-1.54;100.00;100735.06;5027105;28;20128;-63
2024/01/16 04:49:04;;;;;;;17.57;9.60;;;;;;;-1.56;100.00;100736.59;5026234;28;20025;-63
2024/01/16 04:51:29;;;;;;;17.20;9.40;;;;;;;-1.57;100.00;100733.19;5027196;28;20057;-63
2024/01/16 04:53:54;;;;;;;16.00;10.23;;;;;;;-1.57;100.00;100745.00;5026347;28;20430;-63
2024/01/16 04:56:20;;;;;;;14.37;9.50;;;;;;;-1.59;100.00;100733.81;5026506;28;20037;-63
2024/01/16 04:58:46;;;;;;;17.83;8.97;;;;;;;-1.62;100.00;100736.13;5026670;28;20036;-63
2024/01/16 05:01:12;;;;;;;17.80;9.70;;;;;;;-1.64;100.00;100738.53;5026798;28;20450;-63
2024/01/16 05:03:38;;;;;;;12.53;9.13;;;;;;;-1.62;100.00;100738.66;5026233;28;20037;-63
2024/01/16 05:06:03;;;;;;;14.90;9.60;;;;;;;-1.64;100.00;100736.00;5026912;28;20366;-63
2024/01/16 05:08:30;;;;;;;14.77;9.40;;;;;;;-1.69;100.00;100727.97;5026333;28;20446;-63
2024/01/16 05:10:55;;;;;;;14.27;9.17;;;;;;;-1.70;100.00;100733.84;5026641;28;20022;-63
2024/01/16 05:13:21;;;;;;;16.23;9.17;;;;;;;-1.72;100.00;100731.94;5024974;28;20129;-63
2024/01/16 05:15:46;;;;;;;16.83;9.80;;;;;;;-1.73;100.00;100726.00;5026358;28;20708;-63
2024/01/16 05:18:11;;;;;;;15.20;8.97;;;;;;;-1.73;100.00;100723.44;5026594;28;20029;-63
2024/01/16 05:20:36;;;;;;;17.80;9.03;;;;;;;-1.76;100.00;100720.63;5026601;28;20052;-63
2024/01/16 05:23:02;;;;;;;16.63;9.40;;;;;;;-1.77;100.00;100716.34;5027044;28;20041;-63
2024/01/16 05:25:27;;;;;;;17.20;9.23;;;;;;;-1.75;100.00;100721.53;5030605;28;20029;-63
2024/01/16 05:27:52;;;;;;;13.77;8.97;;;;;;;-1.76;100.00;100723.19;5030176;28;20037;-63
2024/01/16 05:30:18;;;;;;;14.93;8.53;;;;;;;-1.79;100.00;100717.84;5030291;28;20032;-63
2024/01/16 05:32:43;;;;;;;20.60;9.10;;;;;;;-1.80;100.00;100721.19;5030421;28;20433;-63
2024/01/16 05:35:09;;;;;;;14.53;8.37;;;;;;;-1.80;100.00;100708.47;5029960;28;20029;-63
2024/01/16 05:37:35;;;;;;;12.63;8.13;;;;;;;-1.82;100.00;100710.00;5030387;28;20024;-63
2024/01/16 05:40:02;;;;;;;15.07;8.23;;;;;;;-1.82;100.00;100703.25;5030161;28;20029;-63
2024/01/16 05:42:28;;;;;;;12.77;8.63;;;;;;;-1.85;100.00;100705.53;5029571;28;20033;-63
2024/01/16 05:44:53;;;;;;;16.23;8.90;;;;;;;-1.84;100.00;100711.53;5030121;28;20083;-63
2024/01/16 05:47:18;;;;;;;16.70;8.50;;;;;;;-1.91;100.00;100706.72;5029489;28;20033;-63
2024/01/16 05:49:44;;;;;;;13.63;8.93;;;;;;;-1.95;100.00;100709.00;5028616;28;20036;-63
2024/01/16 05:52:10;;;;;;;14.80;8.00;;;;;;;-1.99;100.00;100701.91;5028932;28;20445;-63
2024/01/16 05:54:35;;;;;;;17.23;7.60;;;;;;;-1.97;100.00;100700.38;5030129;28;20029;-63
2024/01/16 05:57:00;;;;;;;15.27;7.10;;;;;;;-1.97;100.00;100697.84;5029990;28;20426;-63
2024/01/16 05:59:25;;;;;;;15.60;7.83;;;;;;;-2.03;100.00;100699.00;5029683;28;20049;-63
2024/01/16 06:01:51;;;;;;;14.10;7.70;;;;;;;-2.03;100.00;100694.78;5028226;28;20041;-63
2024/01/16 06:04:16;;;;;;;14.73;7.23;;;;;;;-2.01;100.00;100703.41;5028821;28;20026;-63
2024/01/16 06:06:45;;;;;;;14.73;7.13;;;;;;;-2.10;100.00;100697.59;5029360;28;20036;-63
2024/01/16 06:09:13;;;;;;;11.67;6.40;;;;;;;-2.21;100.00;100700.16;5030226;28;20092;-63
2024/01/16 06:11:40;;;;;;;12.50;6.43;;;;;;;-2.18;100.00;100695.31;5029268;28;20303;-63
2024/01/16 06:14:06;;;;;;;12.87;6.70;;;;;;;-2.20;100.00;100695.97;5029737;28;20060;-63
2024/01/16 06:16:31;;;;;;;14.97;6.50;;;;;;;-2.20;100.00;100695.97;5028486;28;20552;-63
2024/01/16 06:18:57;;;;;;;10.47;6.40;;;;;;;-2.23;100.00;100695.72;5027776;28;20025;-63
2024/01/16 06:21:22;;;;;;;12.63;6.77;;;;;;;-2.22;100.00;100683.16;5028300;28;20048;-63
2024/01/16 06:23:47;;;;;;;11.27;6.00;;;;;;;-2.23;100.00;100691.53;5027353;28;20521;-63
2024/01/16 06:26:12;;;;;;;12.33;5.70;;;;;;;-2.26;100.00;100691.28;5029052;28;20132;-63
2024/01/16 06:28:42;;;;;;;11.10;6.30;;;;;;;-2.30;100.00;100684.16;5021806;28;20107;-63
2024/01/16 06:31:07;;;;;;;10.33;6.00;;;;;;;-2.32;100.00;100685.72;5023998;28;20551;-63
2024/01/16 06:33:33;;;;;;;8.20;5.03;;;;;;;-2.34;100.00;100687.25;5027023;28;20025;-63
2024/01/16 06:35:58;;;;;;;9.70;5.77;;;;;;;-2.32;100.00;100690.78;5024947;28;20465;-63
2024/01/16 06:38:24;;;;;;;9.80;5.83;;;;;;;-2.36;100.00;100688.75;5042933;28;20059;-63
2024/01/16 06:40:49;;;;;;;15.20;6.33;;;;;;;-2.37;100.00;100689.50;5039520;28;20021;-63
2024/01/16 06:43:15;;;;;;;14.83;5.37;;;;;;;-2.37;100.00;100694.56;5043003;28;20029;-63
2024/01/16 06:45:42;;;;;;;13.67;6.00;;;;;;;-2.38;100.00;100695.34;5029857;28;20036;-63
2024/01/16 06:48:07;;;;;;;10.33;5.33;;;;;;;-2.38;100.00;100697.88;5029035;28;20035;-63
2024/01/16 06:50:33;;;;;;;10.90;4.93;;;;;;;-2.39;100.00;100694.47;5027422;28;20042;-63
2024/01/16 06:52:58;;;;;;;9.70;5.20;;;;;;;-2.41;100.00;100696.88;5028659;28;20084;-63
2024/01/16 06:55:23;;;;;;;10.67;4.70;;;;;;;-2.45;100.00;100699.03;5028403;28;20029;-63
2024/01/16 06:57:48;;;;;;;12.97;5.13;;;;;;;-2.42;100.00;100702.72;5027167;28;20029;-63
2024/01/16 07:00:15;;;;;;;9.40;4.30;;;;;;;-2.43;100.00;100698.38;5026833;28;20033;-62
2024/01/16 07:02:43;;;;;;;11.20;4.60;;;;;;;-2.42;100.00;100705.25;5027788;28;20127;-63
2024/01/16 07:05:09;;;;;;;8.70;4.40;;;;;;;-2.42;100.00;100709.44;5028132;28;20572;-63
2024/01/16 07:07:34;;;;;;;10.57;4.50;;;;;;;-2.48;100.00;100702.22;5027739;28;20661;-63
2024/01/16 07:09:59;;;;;;;11.47;5.03;;;;;;;-2.52;100.00;100700.19;5028133;28;20068;-63
2024/01/16 07:12:25;;;;;;;8.30;3.57;;;;;;;-2.48;100.00;100719.97;5028279;28;20025;-63
2024/01/16 07:14:50;;;;;;;10.77;4.53;;;;;;;-2.51;100.00;100716.28;5027466;28;20071;-63
2024/01/16 07:17:15;;;;;;;8.50;4.30;;;;;;;-2.49;100.00;100714.78;5027492;28;20025;-64
2024/01/16 07:19:41;;;;;;;9.67;4.67;;;;;;;-2.49;100.00;100712.22;5015435;28;20033;-63
2024/01/16 07:22:06;;;;;;;10.73;4.33;;;;;;;-2.52;100.00;100715.44;5025723;28;20529;-63
2024/01/16 07:24:31;;;;;;;10.33;4.43;;;;;;;-2.56;100.00;100726.06;5026733;28;20017;-63
2024/01/16 07:26:57;;;;;;;5.90;3.73;;;;;;;-2.54;100.00;100727.97;5025414;28;20075;-63
2024/01/16 07:29:22;;;;;;;9.03;4.47;;;;;;;-2.53;100.00;100728.84;5026104;28;20014;-63
2024/01/16 07:31:47;;;;;;;10.53;4.73;;;;;;;-2.59;100.00;100715.69;5026022;28;20358;-63
2024/01/16 07:34:17;;;;;;;9.07;3.70;;;;;;;-2.58;100.00;100722.50;5026854;28;20026;-63
2024/01/16 07:36:42;;;;;;;8.10;3.80;;;;;;;-2.57;100.00;100720.09;5026299;28;20104;-63
2024/01/16 07:39:08;;;;;;;7.47;3.70;;;;;;;-2.58;100.00;100722.50;5026958;28;20109;-63
2024/01/16 07:41:33;;;;;;;7.93;4.10;;;;;;;-2.57;100.00;100721.75;5027174;28;20036;-63
2024/01/16 07:43:59;;;;;;;6.33;3.70;;;;;;;-2.54;100.00;100722.88;5027333;28;20427;-64
2024/01/16 07:46:24;;;;;;;6.47;3.70;;;;;;;-2.55;100.00;100720.22;5026667;28;20108;-63
2024/01/16 07:48:50;;;;;;;7.23;3.70;;;;;;;-2.55;100.00;100727.84;5026310;28;20029;-63
2024/01/16 07:51:16;;;;;;;8.63;4.30;;;;;;;-2.53;100.00;100726.31;5025436;28;20501;-63
2024/01/16 07:53:41;;;;;;;11.53;4.20;;;;;;;-2.50;100.00;100731.66;5025462;28;20056;-63
2024/01/16 07:56:06;;;;;;;7.97;3.90;;;;;;;-2.51;100.00;100734.97;5025099;28;20025;-63
2024/01/16 07:58:32;;;;;;;8.03;3.93;;;;;;;-2.52;100.00;100735.72;5025719;28;20029;-63
2024/01/16 08:00:57;;;;;;;12.30;5.27;;;;;;;-2.47;100.00;100743.72;5025728;28;20033;-63
2024/01/16 08:03:22;;;;;;;8.70;4.07;;;;;;;-2.50;100.00;100744.34;5022422;28;20033;-63
2024/01/16 08:05:47;;;;;;;8.93;4.20;;;;;;;-2.54;100.00;100748.25;5023628;28;20025;-63
2024/01/16 08:08:13;;;;;;;6.80;4.03;;;;;;;-2.45;100.00;100747.28;5023136;28;20037;-63
2024/01/16 08:10:42;;;;;;;6.37;3.90;;;;;;;-2.47;100.00;100747.16;5023280;28;20036;-63
2024/01/16 08:13:07;;;;;;;9.17;3.77;;;;;;;-2.50;100.00;100746.88;5024120;28;20059;-63
2024/01/16 08:15:34;;;;;;;11.93;4.30;;;;;;;-2.49;100.00;100737.63;5022869;28;20493;-63
2024/01/16 08:18:00;;;;;;;8.43;4.50;;;;;;;-2.52;100.00;100743.34;5023608;28;20041;-63
2024/01/16 08:20:25;;;;;;;9.60;4.27;;;;;;;-2.51;100.00;100744.22;5023886;28;20029;-63
2024/01/16 08:22:51;;;;;;;11.37;4.43;;;;;;;-2.50;100.00;100746.00;5024646;28;20088;-63
2024/01/16 08:25:16;;;;;;;8.40;4.50;;;;;;;-2.46;100.00;100748.00;5024986;28;20033;-63
2024/01/16 08:27:43;;;;;;;9.60;4.40;;;;;;;-2.49;100.00;100747.78;5024834;28;20060;-63
2024/01/16 08:30:09;;;;;;;7.70;4.00;;;;;;;-2.51;100.00;100755.25;5024379;28;20113;-63
2024/01/16 08:32:35;;;;;;;6.17;3.93;;;;;;;-2.50;100.00;100759.56;5023923;28;20029;-63
2024/01/16 08:35:00;;;;;;;8.20;3.23;;;;;;;-2.50;100.00;100757.03;5023780;28;20079;-63
2024/01/16 08:37:25;;;;;;;7.90;3.60;;;;;;;-2.50;100.00;100762.09;5024152;28;20344;-63
2024/01/16 08:39:51;;;;;;;9.20;3.47;;;;;;;-2.48;100.00;100759.72;5022955;28;20032;-63
2024/01/16 08:42:17;;;;;;;7.50;4.07;;;;;;;-2.45;100.00;100754.88;5025771;28;20033;-63
2024/01/16 08:44:43;;;;;;;7.00;3.37;;;;;;;-2.43;100.00;100749.16;5024910;28;20284;-63
2024/01/16 08:47:09;;;;;;;10.40;4.60;;;;;;;-2.43;100.00;100754.25;5022460;28;20367;-63
2024/01/16 08:49:34;;;;;;;10.27;4.30;;;;;;;-2.42;100.00;100750.06;5022188;28;20397;-63
2024/01/16 08:52:00;;;;;;;6.50;3.73;;;;;;;-2.43;100.00;100753.38;5021518;28;20049;-63
2024/01/16 08:54:26;;;;;;;9.67;4.43;;;;;;;-2.44;100.00;100749.94;5023086;28;20092;-63
2024/01/16 08:56:54;;;;;;;8.70;3.90;;;;;;;-2.39;100.00;100751.97;5022874;28;20084;-63
2024/01/16 08:59:19;;;;;;;9.27;4.00;;;;;;;-2.36;100.00;100753.13;5022644;28;20856;-63
2024/01/16 09:01:44;;;;;;;8.57;3.90;;;;;;;-2.35;100.00;100746.38;5021958;28;20041;-63
2024/01/16 09:04:10;;;;;;;8.07;4.10;;;;;;;-2.33;100.00;100755.91;5022839;28;20469;-63
2024/01/16 09:06:35;;;;;;;8.97;3.80;;;;;;;-2.28;100.00;100750.34;5022450;28;20120;-63
2024/01/16 09:09:01;;;;;;;9.50;3.90;;;;;;;-2.33;100.00;100750.81;5026979;28;20064;-63
2024/01/16 09:11:26;;;;;;;6.40;4.30;;;;;;;-2.30;100.00;100752.72;5021650;28;20029;-63
2024/01/16 09:13:51;;;;;;;7.67;3.80;;;;;;;-2.25;100.00;100748.94;5022802;28;20061;-63
2024/01/16 09:16:17;;;;;;;7.10;3.83;;;;;;;-2.24;100.00;100753.25;5023004;28;20021;-63
2024/01/16 09:18:42;;;;;;;9.13;3.87;;;;;;;-2.23;100.00;100751.59;5022700;28;20061;-63
2024/01/16 09:21:08;;;;;;;8.80;4.43;;;;;;;-2.19;100.00;100751.97;5022387;28;20033;-63
2024/01/16 09:23:33;;;;;;;9.47;4.80;;;;;;;-2.19;100.00;100751.97;5023568;28;20112;-63
2024/01/16 09:25:58;;;;;;;11.00;4.20;;;;;;;-2.23;100.00;100742.31;5022018;28;20041;-63
2024/01/16 09:28:24;;;;;;;6.40;3.67;;;;;;;-2.20;100.00;100745.13;5024105;28;20116;-63
2024/01/16 09:30:50;;;;;;;7.77;3.90;;;;;;;-2.15;100.00;100742.03;5022617;28;20040;-63
2024/01/16 09:33:16;;;;;;;6.93;4.00;;;;;;;-2.07;100.00;100746.13;5023232;28;20026;-63
2024/01/16 09:35:42;;;;;;;11.47;3.50;;;;;;;-2.08;100.00;100744.31;5021538;28;20033;-63
2024/01/16 09:38:07;;;;;;;5.30;3.43;;;;;;;-2.00;100.00;100739.88;5022702;28;20033;-63
2024/01/16 09:40:35;;;;;;;6.20;3.93;;;;;;;-2.00;100.00;100734.81;5024499;28;20079;-63
2024/01/16 09:43:00;;;;;;;8.03;3.77;;;;;;;-1.89;100.00;100733.13;5019349;28;20040;-63
2024/01/16 09:45:27;;;;;;;9.87;4.33;;;;;;;-1.89;100.00;100735.69;5020079;28;20030;-63
2024/01/16 09:47:52;;;;;;;5.93;3.37;;;;;;;-1.83;100.00;100747.22;5023041;28;20037;-63
2024/01/16 09:50:19;;;;;;;11.63;4.20;;;;;;;-1.72;100.00;100744.63;5026047;28;20033;-63
2024/01/16 09:52:48;;;;;;;8.30;3.93;;;;;;;-1.69;100.00;100752.50;5026360;28;20528;-63
2024/01/16 09:55:15;;;;;;;7.17;3.93;;;;;;;-1.66;100.00;100751.88;5026956;28;20105;-63
2024/01/16 09:57:41;;;;;;;8.43;3.80;;;;;;;-1.74;100.00;100749.59;5022525;28;20036;-63
2024/01/16 10:00:11;;;;;;;8.93;5.77;;;;;;;-1.68;100.00;100749.22;5021579;28;20026;-63
2024/01/16 10:02:38;;;;;;;17.60;5.10;;;;;;;-1.69;100.00;100733.06;5025164;28;20558;-63
2024/01/16 10:05:04;;;;;;;9.63;4.10;;;;;;;-1.67;100.00;100727.25;5018275;28;20120;-63
2024/01/16 10:07:31;;;;;;;7.47;3.97;;;;;;;-1.65;100.00;100733.31;5021504;28;20034;-63
2024/01/16 10:09:57;;;;;;;6.70;4.23;;;;;;;-1.69;100.00;100733.06;5017947;28;20021;-63
2024/01/16 10:12:23;;;;;;;10.47;3.90;;;;;;;-1.67;100.00;100734.88;5025276;28;20029;-63
2024/01/16 10:14:50;;;;;;;11.83;3.80;;;;;;;-1.74;100.00;100729.28;5024427;28;20021;-63
2024/01/16 10:17:18;;;;;;;8.53;4.37;;;;;;;-1.67;100.00;100730.66;5026161;28;20021;-64
2024/01/16 10:19:54;;;;;;;8.97;3.50;;;;;;;-1.68;100.00;100728.88;5023418;28;20056;-63
2024/01/16 10:22:27;;;;;;;8.17;3.77;;;;;;;-1.62;100.00;100723.41;5026417;28;20104;-63
2024/01/16 10:25:10;;;;;;;11.70;4.33;;;;;;;-1.53;100.00;100723.25;5023393;28;20495;-63
2024/01/16 10:27:37;;;;;;;6.30;4.10;;;;;;;-1.51;100.00;100721.72;5024635;28;20440;-63
2024/01/16 10:30:04;;;;;;;8.37;3.77;;;;;;;-1.54;100.00;100719.81;5025351;28;20573;-63
2024/01/16 10:32:30;;;;;;;8.43;4.23;;;;;;;-1.51;100.00;100711.53;5028686;28;20029;-63
2024/01/16 10:35:06;;;;;;;8.30;4.90;;;;;;;-1.45;100.00;100712.91;5027233;28;20025;-63
2024/01/16 10:37:47;;;;;;;9.20;3.87;;;;;;;-1.43;100.00;100701.97;5021659;28;20109;-63
2024/01/16 10:40:20;;;;;;;8.48;3.63;;;;;;;-1.36;100.00;100696.59;5024911;28;21556;-63
2024/01/16 10:42:56;;;;;;;4.70;3.57;;;;;;;-1.38;100.00;100700.66;5026341;28;20029;-63
2024/01/16 10:45:22;;;;;;;5.10;3.70;;;;;;;-1.35;100.00;100690.75;5022498;28;20498;-64
2024/01/16 10:47:48;;;;;;;8.10;3.63;;;;;;;-1.27;100.00;100694.78;5025065;28;20168;-63
2024/01/16 10:50:13;;;;;;;7.30;4.13;;;;;;;-1.30;100.00;100697.09;5026281;28;20032;-63
2024/01/16 10:52:48;;;;;;;7.60;4.27;;;;;;;-1.33;100.00;100699.38;5023164;28;20037;-63
2024/01/16 10:55:22;;;;;;;6.33;4.10;;;;;;;-1.29;100.00;100703.94;5024021;28;20124;-63
2024/01/16 10:57:51;;;;;;;6.80;4.10;;;;;;;-1.19;100.00;100709.75;5024124;28;20037;-63
2024/01/16 11:00:19;;;;;;;7.27;4.00;;;;;;;-1.07;100.00;100694.53;5024641;28;20084;-63
2024/01/16 11:02:51;;;;;;;9.23;3.83;;;;;;;-1.11;100.00;100688.31;5023520;28;20038;-63
2024/01/16 11:05:17;;;;;;;6.43;3.97;;;;;;;-1.04;100.00;100690.56;5024703;28;20079;-63
2024/01/16 11:07:44;;;;;;;6.10;3.80;;;;;;;-0.98;100.00;100685.97;5023729;28;20037;-63
2024/01/16 11:10:10;;;;;;;9.37;4.00;;;;;;;-0.93;100.00;100686.28;5023179;28;20030;-63